Buzuluk, Russia
Current Conditions -  °F | °C
As of 12:30 PM on Wednesday 26 Nov 2014 (Local Time) from UWWW Reporting Station
Clear Clear  
Wind Chill:   Ceiling: Unl
Heat Index: 19°   Visibility: 6mi
Dew Point: 12°   Wind: 9mph
Humidity: 74%   Direction: 250°WSW
Pressure: 30.45"   Gusts: NA
Location:  52.78°N, 52.26°E
Report Text: UWWW 260730Z 25004MPS CAVOK M07/M11 Q1031 23450347 15//99//NOSIG RMK QFE762/1016
Loading
Personal Weather Stations






























Interactive Weather Map New forecast layout! Learn more

10-Day Weather Forecast

Advertisements
Track Severe Weather on mobile